Time;durP1;ratioP1;P1;durP2;ratioP2;P2;SDS_P1;SDS_P2;PMS_P1;PMS_P2;Temp;Humidity;BMP_temperature;BMP_pressure;BME280_temperature;BME280_humidity;BME280_pressure;Samples;Min_cycle;Max_cycle;Signal;HPM_P1;HPM_P2
2023/10/17 00:01:32;;;;;;;;;;;;;;;6.48;80.21;101727.75;4218932;28;19928;-68
2023/10/17 00:03:37;;;;;;;;;;;;;;;6.48;80.46;101722.38;4218748;28;20377;-68
2023/10/17 00:05:40;;;;;;;;;;;;;;;6.46;80.30;101734.22;4219574;28;20014;-68
2023/10/17 00:07:44;;;;;;;;;;;;;;;6.44;80.72;101726.31;4218890;28;20445;-68
2023/10/17 00:09:50;;;;;;;;;;;;;;;6.43;80.90;101716.53;4219432;28;20023;-69
2023/10/17 00:11:59;;;;;;;;;;;;;;;6.48;81.00;101719.69;4219604;28;20021;-68
2023/10/17 00:14:07;;;;;;;;;;;;;;;6.49;80.65;101721.41;4218419;28;20015;-68
2023/10/17 00:16:12;;;;;;;;;;;;;;;6.53;80.84;101722.00;4220440;28;20014;-69
2023/10/17 00:18:17;;;;;;;;;;;;;;;6.53;81.03;101722.00;4219358;28;20030;-68
2023/10/17 00:20:24;;;;;;;;;;;;;;;6.52;80.76;101725.69;4219092;28;20014;-68
2023/10/17 00:22:26;;;;;;;;;;;;;;;6.52;81.08;101724.81;4218294;28;20018;-68
2023/10/17 00:24:28;;;;;;;;;;;;;;;6.52;80.85;101722.13;4219465;28;20022;-68
2023/10/17 00:26:32;;;;;;;;;;;;;;;6.51;80.57;101723.13;4219320;28;20035;-69
2023/10/17 00:28:35;;;;;;;;;;;;;;;6.48;80.99;101719.69;4218387;28;20031;-68
2023/10/17 00:30:38;;;;;;;;;;;;;;;6.47;80.93;101728.75;4218969;28;20454;-68
2023/10/17 00:32:42;;;;;;;;;;;;;;;6.45;80.84;101722.63;4217690;28;20010;-68
2023/10/17 00:34:46;;;;;;;;;;;;;;;6.45;80.69;101724.47;4233384;28;20015;-68
2023/10/17 00:36:49;;;;;;;;;;;;;;;6.48;80.82;101724.22;4233540;28;20014;-69
2023/10/17 00:38:53;;;;;;;;;;;;;;;6.49;80.98;101731.28;4218886;28;20014;-69
2023/10/17 00:40:56;;;;;;;;;;;;;;;6.47;80.69;101731.41;4218113;28;20024;-68
2023/10/17 00:42:59;;;;;;;;;;;;;;;6.49;80.73;101725.94;4219599;28;20015;-69
2023/10/17 00:45:02;;;;;;;;;;;;;;;6.49;80.88;101725.94;4216058;28;20460;-68
2023/10/17 00:47:05;;;;;;;;;;;;;;;6.49;81.03;101724.09;4219815;28;20050;-69
2023/10/17 00:49:06;;;;;;;;;;;;;;;6.48;81.04;101721.53;4219672;28;20035;-67
2023/10/17 00:51:09;;;;;;;;;;;;;;;6.48;81.45;101719.69;4218592;28;20018;-69
2023/10/17 00:53:11;;;;;;;;;;;;;;;6.49;81.09;101715.19;4216644;28;20020;-68
2023/10/17 00:55:14;;;;;;;;;;;;;;;6.48;81.42;101722.38;4217027;28;20023;-67
2023/10/17 00:57:15;;;;;;;;;;;;;;;6.48;81.60;101717.00;4216875;28;20121;-69
2023/10/17 00:59:22;;;;;;;;;;;;;;;6.48;81.46;101708.09;4216298;28;20022;-66
2023/10/17 01:01:27;;;;;;;;;;;;;;;6.47;82.02;101711.75;4215661;28;20027;-69
2023/10/17 01:03:29;;;;;;;;;;;;;;;6.45;81.79;101708.34;4217977;28;20018;-69
2023/10/17 01:05:39;;;;;;;;;;;;;;;6.43;81.93;101716.53;4218950;28;20243;-69
2023/10/17 01:07:41;;;;;;;;;;;;;;;6.42;82.38;101703.25;4218363;28;20015;-69
2023/10/17 01:09:47;;;;;;;;;;;;;;;6.40;82.92;101706.06;4219358;28;20027;-69
2023/10/17 01:11:49;;;;;;;;;;;;;;;6.39;82.98;101701.66;4222401;28;20010;-66
2023/10/17 01:13:52;;;;;;;;;;;;;;;6.38;82.81;101701.78;4222584;28;19924;-68
2023/10/17 01:15:57;;;;;;;;;;;;;;;6.37;82.77;101709.00;4219727;28;20022;-69
2023/10/17 01:18:04;;;;;;;;;;;;;;;6.36;83.22;101703.75;4220825;28;20014;-69
2023/10/17 01:20:14;;;;;;;;;;;;;;;6.36;83.55;101703.75;4221397;28;20015;-68
2023/10/17 01:22:16;;;;;;;;;;;;;;;6.35;83.63;101708.28;4202696;28;20019;-67
2023/10/17 01:24:18;;;;;;;;;;;;;;;6.35;83.54;101702.03;4222662;28;19971;-68
2023/10/17 01:26:23;;;;;;;;;;;;;;;6.36;83.62;101701.91;4202927;28;20027;-69
2023/10/17 01:28:24;;;;;;;;;;;;;;;6.37;84.04;101703.63;4219817;28;20014;-68
2023/10/17 01:30:29;;;;;;;;;;;;;;;6.39;84.11;101703.50;4220573;28;19939;-69
2023/10/17 01:32:31;;;;;;;;;;;;;;;6.41;84.11;101702.41;4219657;28;20014;-68
2023/10/17 01:34:33;;;;;;;;;;;;;;;6.42;84.31;101703.25;4221718;28;19939;-68
2023/10/17 01:36:36;;;;;;;;;;;;;;;6.41;84.13;101699.72;4219749;28;20031;-68
2023/10/17 01:38:38;;;;;;;;;;;;;;;6.43;84.10;101702.28;4218287;28;20581;-68
2023/10/17 01:40:41;;;;;;;;;;;;;;;6.43;83.96;101694.22;4218496;28;20027;-68
2023/10/17 01:42:43;;;;;;;;;;;;;;;6.43;84.08;101694.22;4221336;28;20007;-67
2023/10/17 01:44:45;;;;;;;;;;;;;;;6.45;83.72;101697.63;4221305;28;20030;-68
2023/10/17 01:46:47;;;;;;;;;;;;;;;6.46;84.10;101696.66;4221583;28;20033;-68
2023/10/17 01:48:48;;;;;;;;;;;;;;;6.48;83.82;101698.22;4221454;28;20113;-68
2023/10/17 01:50:51;;;;;;;;;;;;;;;6.47;83.85;101695.66;4218492;28;20022;-68
2023/10/17 01:52:53;;;;;;;;;;;;;;;6.45;83.75;101689.56;4219787;28;20019;-69
2023/10/17 01:54:55;;;;;;;;;;;;;;;6.44;83.53;101694.09;4203235;28;20029;-68
2023/10/17 01:57:07;;;;;;;;;;;;;;;6.42;83.59;101696.03;4203093;28;20070;-68
2023/10/17 01:59:13;;;;;;;;;;;;;;;6.44;83.82;101693.22;4218687;28;20003;-68
2023/10/17 02:01:17;;;;;;;;;;;;;;;6.42;83.87;101692.50;4203264;28;20011;-68
2023/10/17 02:03:19;;;;;;;;;;;;;;;6.43;83.83;101688.84;4200631;28;20007;-68
2023/10/17 02:05:22;;;;;;;;;;;;;;;6.41;84.12;101697.03;4202738;28;20011;-68
2023/10/17 02:07:24;;;;;;;;;;;;;;;6.42;83.95;101689.81;4236389;27;20355;-68
2023/10/17 02:09:44;;;;;;;;;;;;;;;6.42;83.67;101689.81;4219757;28;20027;-68
2023/10/17 02:11:50;;;;;;;;;;;;;;;6.43;84.18;101689.69;4218751;28;20015;-69
2023/10/17 02:13:56;;;;;;;;;;;;;;;6.43;83.90;101691.53;4221669;27;20429;-69
2023/10/17 02:15:57;;;;;;;;;;;;;;;6.42;83.90;101690.66;4203254;28;20001;-69
2023/10/17 02:18:03;;;;;;;;;;;;;;;6.43;84.01;101692.38;4219153;28;20018;-69
2023/10/17 02:20:17;;;;;;;;;;;;;;;6.44;84.08;101680.69;4202326;28;20014;-68
2023/10/17 02:22:19;;;;;;;;;;;;;;;6.48;84.22;101692.84;4203061;28;20015;-68
2023/10/17 02:24:21;;;;;;;;;;;;;;;6.49;84.20;101691.88;4219492;28;20016;-68
2023/10/17 02:26:28;;;;;;;;;;;;;;;6.49;84.37;101691.88;4222146;28;20018;-69
2023/10/17 02:28:29;;;;;;;;;;;;;;;6.49;84.26;101691.88;4219700;28;20015;-68
2023/10/17 02:30:32;;;;;;;;;;;;;;;6.49;84.10;101691.03;4217626;28;19986;-69
2023/10/17 02:32:35;;;;;;;;;;;;;;;6.54;84.27;101691.50;4220187;28;20006;-68
2023/10/17 02:34:36;;;;;;;;;;;;;;;6.55;83.95;101689.66;4219432;28;20464;-69
2023/10/17 02:36:38;;;;;;;;;;;;;;;6.57;84.14;101691.25;4219239;28;19932;-67
2023/10/17 02:38:39;;;;;;;;;;;;;;;6.60;84.46;101691.00;4220370;28;20020;-68
2023/10/17 02:40:42;;;;;;;;;;;;;;;6.63;84.64;101697.91;4220032;28;20019;-69
2023/10/17 02:42:43;;;;;;;;;;;;;;;6.61;84.59;101698.03;4220941;28;20028;-68
2023/10/17 02:44:45;;;;;;;;;;;;;;;6.60;84.51;101690.13;4221009;28;19931;-67
2023/10/17 02:46:49;;;;;;;;;;;;;;;6.60;84.13;101700.84;4220402;28;20034;-69
2023/10/17 02:48:52;;;;;;;;;;;;;;;6.60;84.36;101696.34;4220347;28;20010;-68
2023/10/17 02:50:58;;;;;;;;;;;;;;;6.61;84.43;101692.69;4220133;28;20018;-69
2023/10/17 02:53:00;;;;;;;;;;;;;;;6.62;84.18;101693.56;4220454;28;20039;-68
2023/10/17 02:55:05;;;;;;;;;;;;;;;6.65;84.53;101698.66;4220707;28;20121;-69
2023/10/17 02:57:08;;;;;;;;;;;;;;;6.66;84.86;101703.91;4220763;28;20466;-69
2023/10/17 02:59:10;;;;;;;;;;;;;;;6.68;84.59;101703.78;4220392;28;20023;-69
2023/10/17 03:01:11;;;;;;;;;;;;;;;6.67;84.58;101694.84;4216491;28;20022;-69
2023/10/17 03:03:15;;;;;;;;;;;;;;;6.66;84.36;101701.22;4218281;28;19930;-69
2023/10/17 03:05:18;;;;;;;;;;;;;;;6.63;84.46;101688.06;4220594;28;20018;-69
2023/10/17 03:07:21;;;;;;;;;;;;;;;6.66;84.68;101697.66;4235088;27;20031;-69
2023/10/17 03:09:36;;;;;;;;;;;;;;;6.65;84.78;101687.94;4219147;28;20027;-69
2023/10/17 03:11:47;;;;;;;;;;;;;;;6.64;85.04;101697.78;4219904;28;20054;-69
2023/10/17 03:13:48;;;;;;;;;;;;;;;6.64;85.04;101700.47;4219610;28;20688;-68
2023/10/17 03:15:54;;;;;;;;;;;;;;;6.67;85.18;101694.84;4218031;28;20027;-69
2023/10/17 03:18:00;;;;;;;;;;;;;;;6.67;85.11;101702.06;4225612;28;19967;-69
2023/10/17 03:20:09;;;;;;;;;;;;;;;6.66;85.29;101697.66;4223676;28;20015;-69
2023/10/17 03:22:16;;;;;;;;;;;;;;;6.64;85.37;101697.78;4218478;28;20014;-67
2023/10/17 03:24:19;;;;;;;;;;;;;;;6.65;85.27;101685.25;4217482;28;20368;-69
2023/10/17 03:26:21;;;;;;;;;;;;;;;6.67;85.48;101699.38;4218806;28;20010;-68
2023/10/17 03:28:24;;;;;;;;;;;;;;;6.69;85.51;101700.09;4219754;28;19983;-69
2023/10/17 03:30:26;;;;;;;;;;;;;;;6.71;85.33;101694.59;4232643;27;20027;-69
2023/10/17 03:32:28;;;;;;;;;;;;;;;6.71;85.41;101689.22;4216089;28;20608;-69
2023/10/17 03:34:35;;;;;;;;;;;;;;;6.73;85.12;101695.34;4218690;28;20034;-68
2023/10/17 03:36:42;;;;;;;;;;;;;;;6.74;85.45;101691.66;4200374;28;20073;-69
2023/10/17 03:38:51;;;;;;;;;;;;;;;6.73;85.41;101684.59;4217961;28;19928;-69
2023/10/17 03:40:54;;;;;;;;;;;;;;;6.73;85.66;101690.81;4218853;28;20023;-69
2023/10/17 03:42:56;;;;;;;;;;;;;;;6.76;85.67;101682.50;4219905;28;20018;-68
2023/10/17 03:44:58;;;;;;;;;;;;;;;6.80;85.87;101699.19;4219605;28;20529;-69
2023/10/17 03:47:04;;;;;;;;;;;;;;;6.81;85.85;101693.69;4217883;28;20030;-68
2023/10/17 03:49:06;;;;;;;;;;;;;;;6.82;85.65;101698.09;4219773;28;20023;-69
2023/10/17 03:51:15;;;;;;;;;;;;;;;6.80;85.81;101683.97;4219125;28;20050;-69
2023/10/17 03:53:25;;;;;;;;;;;;;;;6.84;85.54;101687.22;4219630;28;20051;-69
2023/10/17 03:55:26;;;;;;;;;;;;;;;6.85;85.51;101686.25;4219977;28;20026;-69
2023/10/17 03:57:28;;;;;;;;;;;;;;;6.89;85.37;101692.22;4220119;28;20022;-69
2023/10/17 03:59:38;;;;;;;;;;;;;;;6.91;85.41;101690.25;4219517;28;19928;-69
2023/10/17 04:01:41;;;;;;;;;;;;;;;6.91;85.74;101692.94;4217295;28;20027;-69
2023/10/17 04:03:43;;;;;;;;;;;;;;;6.92;85.74;101686.59;4218879;28;20473;-68
2023/10/17 04:05:45;;;;;;;;;;;;;;;6.91;85.67;101692.94;4218638;28;20018;-69
2023/10/17 04:07:52;;;;;;;;;;;;;;;6.88;85.72;101691.38;4219244;28;20018;-69
2023/10/17 04:10:17;;;;;;;;;;;;;;;6.90;85.61;101694.78;4218607;28;20034;-69
2023/10/17 04:12:21;;;;;;;;;;;;;;;6.90;85.72;101696.63;4217925;28;20051;-69
2023/10/17 04:14:29;;;;;;;;;;;;;;;6.88;85.84;101693.19;4218952;28;20007;-67
2023/10/17 04:16:34;;;;;;;;;;;;;;;6.88;85.83;101691.38;4218980;28;20359;-69
2023/10/17 04:18:37;;;;;;;;;;;;;;;6.91;85.83;101698.28;4219406;28;20022;-69
2023/10/17 04:20:42;;;;;;;;;;;;;;;6.92;85.95;101692.78;4217935;28;20019;-67
2023/10/17 04:22:44;;;;;;;;;;;;;;;6.94;86.09;101700.72;4217957;28;20376;-68
2023/10/17 04:24:47;;;;;;;;;;;;;;;6.94;86.19;101703.41;4218624;28;20014;-67
2023/10/17 04:26:51;;;;;;;;;;;;;;;6.95;86.02;101702.44;4218504;28;19999;-67
2023/10/17 04:29:00;;;;;;;;;;;;;;;6.93;85.95;101696.31;4219131;28;20356;-67
2023/10/17 04:31:07;;;;;;;;;;;;;;;6.92;86.10;101700.00;4217615;28;20450;-67
2023/10/17 04:33:12;;;;;;;;;;;;;;;6.91;86.03;101698.28;4216797;28;20014;-67
2023/10/17 04:35:20;;;;;;;;;;;;;;;6.91;86.12;101700.97;4217933;28;20011;-67
2023/10/17 04:37:24;;;;;;;;;;;;;;;6.92;86.25;101710.75;4217708;28;20018;-69
2023/10/17 04:39:35;;;;;;;;;;;;;;;6.92;86.57;101700.84;4218127;28;20022;-67
2023/10/17 04:41:44;;;;;;;;;;;;;;;6.92;86.52;101700.00;4217180;28;19924;-68
2023/10/17 04:43:54;;;;;;;;;;;;;;;6.93;86.42;101699.00;4218790;28;19924;-68
2023/10/17 04:45:55;;;;;;;;;;;;;;;6.95;86.52;101705.13;4221345;28;20019;-68
2023/10/17 04:48:11;;;;;;;;;;;;;;;6.96;86.65;101715.75;4222664;28;20444;-68
2023/10/17 04:50:12;;;;;;;;;;;;;;;6.97;86.65;101703.16;4222391;28;20524;-68
2023/10/17 04:52:18;;;;;;;;;;;;;;;6.97;86.43;101705.84;4222606;28;19928;-68
2023/10/17 04:54:30;;;;;;;;;;;;;;;6.96;86.68;101709.50;4220950;28;20018;-68
2023/10/17 04:56:52;;;;;;;;;;;;;;;6.96;87.01;101712.19;4222793;28;20016;-69
2023/10/17 04:58:56;;;;;;;;;;;;;;;6.95;86.65;101714.03;4221977;28;20046;-69
2023/10/17 05:01:17;;;;;;;;;;;;;;;6.96;86.80;101712.19;4220235;28;20042;-68
2023/10/17 05:03:32;;;;;;;;;;;;;;;6.97;87.01;101712.06;4220360;28;20014;-68
2023/10/17 05:05:39;;;;;;;;;;;;;;;6.99;87.21;101715.47;4221077;28;20365;-68
2023/10/17 05:07:58;;;;;;;;;;;;;;;7.00;87.35;101719.84;4221717;28;20031;-69
2023/10/17 06:18:00;;;;;;;;;;;;;;;7.44;87.73;101749.28;4220134;28;20042;-67
2023/10/17 06:20:04;;;;;;;;;;;;;;;7.43;88.40;101758.34;4218740;28;20541;-68
2023/10/17 06:26:58;;;;;;;;;;;;;;;7.51;87.98;101765.75;4215958;28;20607;-68
2023/10/17 06:31:41;;;;;;;;;;;;;;;7.52;88.28;101762.06;4217276;28;20094;-68
2023/10/17 06:33:42;;;;;;;;;;;;;;;7.54;88.29;101770.88;4218400;28;20023;-68
2023/10/17 06:35:47;;;;;;;;;;;;;;;7.55;88.30;101773.44;4217520;28;19946;-67
2023/10/17 06:37:49;;;;;;;;;;;;;;;7.56;88.52;101766.22;4155171;28;1801646;-67
2023/10/17 06:39:57;;;;;;;;;;;;;;;7.58;88.60;101770.44;4220358;28;20050;-68
2023/10/17 06:42:13;;;;;;;;;;;;;;;7.60;88.14;101770.31;4220753;28;20478;-69
2023/10/17 06:44:21;;;;;;;;;;;;;;;7.62;88.31;101771.06;4221014;28;20023;-68
2023/10/17 06:46:28;;;;;;;;;;;;;;;7.64;88.52;101777.16;4220645;28;20027;-68
2023/10/17 06:48:35;;;;;;;;;;;;;;;7.67;88.34;101774.19;4220874;28;20390;-67
2023/10/17 06:53:02;;;;;;;;;;;;;;;7.71;87.88;101772.09;4220916;28;20015;-67
2023/10/17 06:55:07;;;;;;;;;;;;;;;7.72;87.78;101771.94;4220270;27;20624;-68
2023/10/17 06:57:18;;;;;;;;;;;;;;;7.73;87.41;101779.03;4220134;28;20047;-67
2023/10/17 06:59:24;;;;;;;;;;;;;;;7.75;86.83;101784.28;4220506;28;20035;-68
2023/10/17 07:01:27;;;;;;;;;;;;;;;7.78;87.03;101791.25;4220084;28;20027;-68
2023/10/17 07:03:34;;;;;;;;;;;;;;;7.79;87.72;101788.44;4220498;28;20007;-67
2023/10/17 07:05:36;;;;;;;;;;;;;;;7.81;88.38;101791.84;4219546;28;20465;-66
2023/10/17 07:07:40;;;;;;;;;;;;;;;7.83;88.52;101787.16;4220014;28;20438;-68
2023/10/17 07:09:52;;;;;;;;;;;;;;;7.84;88.68;101785.34;4220401;28;19973;-67
2023/10/17 07:11:53;;;;;;;;;;;;;;;7.86;89.11;101792.28;4219382;28;20014;-68
2023/10/17 07:14:05;;;;;;;;;;;;;;;7.87;88.54;101783.22;4220156;28;19934;-68
2023/10/17 07:16:12;;;;;;;;;;;;;;;7.89;88.53;101786.63;4220850;28;20019;-67
2023/10/17 07:21:14;;;;;;;;;;;;;;;7.93;88.70;101787.19;4219917;28;20026;-69
2023/10/17 07:22:53;;;;;;;;;;;;;;;7.96;88.93;101783.41;4219655;28;20022;-69
2023/10/17 07:25:01;;;;;;;;;;;;;;;7.96;89.00;101786.94;4218611;28;20023;-69
2023/10/17 07:27:03;;;;;;;;;;;;;;;7.99;89.07;101794.75;4218117;28;20330;-66
2023/10/17 07:29:06;;;;;;;;;;;;;;;8.01;88.52;101798.16;4220874;28;20360;-66
2023/10/17 07:31:10;;;;;;;;;;;;;;;8.03;88.51;101792.66;4218749;28;19969;-66
2023/10/17 07:33:17;;;;;;;;;;;;;;;8.05;88.66;101793.38;4220662;28;20014;-67
2023/10/17 07:35:23;;;;;;;;;;;;;;;8.07;88.58;101791.38;4220759;28;20490;-66
2023/10/17 07:37:25;;;;;;;;;;;;;;;8.07;88.27;101794.94;4219050;28;20019;-66
2023/10/17 07:39:36;;;;;;;;;;;;;;;8.09;87.84;101794.81;4219022;28;20034;-67
2023/10/17 07:41:39;;;;;;;;;;;;;;;8.11;87.65;101795.50;4219786;28;20457;-66
2023/10/17 07:43:44;;;;;;;;;;;;;;;8.12;87.57;101792.69;4219527;28;20054;-67
2023/10/17 07:45:55;;;;;;;;;;;;;;;8.13;87.68;101790.84;4219473;28;20023;-66
2023/10/17 07:48:01;;;;;;;;;;;;;;;8.14;87.55;101792.56;4220155;28;20450;-70
2023/10/17 07:50:02;;;;;;;;;;;;;;;8.14;87.35;101787.19;4219546;28;20458;-66
2023/10/17 07:52:07;;;;;;;;;;;;;;;8.16;86.90;101795.94;4220227;28;19969;-66
2023/10/17 07:54:09;;;;;;;;;;;;;;;8.17;86.57;101792.28;4220482;28;20014;-66
2023/10/17 07:56:19;;;;;;;;;;;;;;;8.18;86.48;101785.94;4220519;28;20019;-67
2023/10/17 07:58:39;;;;;;;;;;;;;;;8.20;86.20;101789.31;4219232;28;20019;-67
2023/10/17 08:00:41;;;;;;;;;;;;;;;8.22;86.46;101786.50;4219609;28;20026;-69
2023/10/17 08:02:43;;;;;;;;;;;;;;;8.23;86.33;101786.38;4219320;28;20401;-67
2023/10/17 08:04:47;;;;;;;;;;;;;;;8.24;85.91;101788.03;4218601;28;20011;-67
2023/10/17 08:06:50;;;;;;;;;;;;;;;8.26;86.06;101791.47;4219521;28;20010;-67
2023/10/17 08:08:53;;;;;;;;;;;;;;;8.27;85.73;101785.09;4219226;28;20007;-67
2023/10/17 08:10:58;;;;;;;;;;;;;;;8.28;85.79;101785.97;4219245;28;20047;-66
2023/10/17 08:13:00;;;;;;;;;;;;;;;8.31;85.35;101791.06;4218973;28;19938;-66
2023/10/17 08:15:18;;;;;;;;;;;;;;;8.33;84.67;101789.09;4234813;27;20010;-66
2023/10/17 08:17:20;;;;;;;;;;;;;;;8.37;84.34;101795.91;4218993;28;20038;-70
2023/10/17 08:19:22;;;;;;;;;;;;;;;8.41;83.91;101801.84;4218875;28;20014;-69
2023/10/17 08:21:40;;;;;;;;;;;;;;;8.42;83.40;101801.72;4219193;28;20018;-69
2023/10/17 08:23:42;;;;;;;;;;;;;;;8.45;82.81;101803.34;4219211;28;20022;-69
2023/10/17 08:25:52;;;;;;;;;;;;;;;8.47;81.92;101796.81;4218318;28;20011;-66
2023/10/17 08:27:56;;;;;;;;;;;;;;;8.51;81.29;101800.09;4220245;28;20437;-67
2023/10/17 08:30:00;;;;;;;;;;;;;;;8.54;80.80;101802.50;4219952;28;20022;-67
2023/10/17 08:32:14;;;;;;;;;;;;;;;8.59;79.91;101799.38;4220051;28;20457;-67
2023/10/17 08:34:16;;;;;;;;;;;;;;;8.63;79.43;101801.66;4219713;28;19924;-67
2023/10/17 08:36:23;;;;;;;;;;;;;;;8.67;79.11;101794.16;4219850;28;20030;-67
2023/10/17 08:38:24;;;;;;;;;;;;;;;8.73;78.81;101792.75;4218950;28;20007;-67
2023/10/17 08:40:39;;;;;;;;;;;;;;;8.78;78.07;101794.03;4218562;28;19923;-67
2023/10/17 08:42:49;;;;;;;;;;;;;;;8.83;77.86;101797.16;4218711;28;20011;-67
2023/10/17 08:44:53;;;;;;;;;;;;;;;8.90;77.12;101792.06;4219831;28;20020;-66
2023/10/17 08:46:55;;;;;;;;;;;;;;;8.96;76.52;101794.19;4219025;28;20015;-66
2023/10/17 08:48:59;;;;;;;;;;;;;;;9.04;76.27;101790.78;4219414;28;20026;-67
2023/10/17 08:51:06;;;;;;;;;;;;;;;9.13;75.51;101794.50;4218084;28;20019;-67
2023/10/17 08:53:13;;;;;;;;;;;;;;;9.20;74.73;101790.25;4219315;28;20023;-66
2023/10/17 08:55:16;;;;;;;;;;;;;;;9.30;74.40;101779.47;4220080;28;19932;-67
2023/10/17 08:57:18;;;;;;;;;;;;;;;9.38;73.94;101791.22;4219656;28;20023;-66
2023/10/17 08:59:35;;;;;;;;;;;;;;;9.47;73.55;101788.66;4218995;28;20018;-66
2023/10/17 09:01:37;;;;;;;;;;;;;;;9.55;73.03;101800.41;4218805;28;20023;-66
2023/10/17 09:03:41;;;;;;;;;;;;;;;9.63;72.58;101798.84;4220271;28;20026;-66
2023/10/17 09:06:06;;;;;;;;;;;;;;;9.71;72.49;101791.72;4219181;28;20010;-67
2023/10/17 09:08:11;;;;;;;;;;;;;;;9.79;72.24;101787.47;4218967;28;21226;-67
2023/10/17 09:10:36;;;;;;;;;;;;;;;9.84;72.39;101794.13;4219287;28;20567;-67
2023/10/17 09:12:43;;;;;;;;;;;;;;;9.91;72.00;101803.31;4218626;28;20018;-66
2023/10/17 09:14:44;;;;;;;;;;;;;;;9.95;72.04;101792.22;4219065;28;20501;-66
2023/10/17 09:16:50;;;;;;;;;;;;;;;9.99;71.93;101796.34;4219216;28;20423;-67
2023/10/17 09:18:54;;;;;;;;;;;;;;;10.02;71.69;101793.34;4219024;28;20027;-67
2023/10/17 09:20:57;;;;;;;;;;;;;;;10.05;71.50;101791.22;4217982;28;20023;-68
2023/10/17 09:22:59;;;;;;;;;;;;;;;10.07;71.28;101791.91;4218304;28;20022;-67
2023/10/17 09:25:07;;;;;;;;;;;;;;;10.10;71.26;101790.75;4218966;28;20035;-67
2023/10/17 09:27:12;;;;;;;;;;;;;;;10.13;71.24;101790.47;4218915;28;20580;-67
2023/10/17 09:29:15;;;;;;;;;;;;;;;10.15;71.23;101783.06;4218795;28;20036;-67
2023/10/17 09:31:17;;;;;;;;;;;;;;;10.17;70.98;101783.78;4220840;28;20368;-67
2023/10/17 09:33:27;;;;;;;;;;;;;;;10.20;70.71;101785.31;4219210;28;20023;-67
2023/10/17 09:35:29;;;;;;;;;;;;;;;10.22;70.67;101784.19;4221378;28;20014;-67
2023/10/17 09:37:32;;;;;;;;;;;;;;;10.23;70.75;101785.84;4221128;28;19927;-67
2023/10/17 09:39:39;;;;;;;;;;;;;;;10.27;70.51;101783.72;4221379;28;20047;-67
2023/10/17 09:41:41;;;;;;;;;;;;;;;10.28;70.32;101788.97;4221259;28;20031;-68
2023/10/17 09:43:43;;;;;;;;;;;;;;;10.31;70.37;101793.22;4221584;28;20026;-68
2023/10/17 09:45:47;;;;;;;;;;;;;;;10.33;70.34;101791.28;4221101;28;20386;-67
2023/10/17 09:47:52;;;;;;;;;;;;;;;10.34;70.30;101782.16;4221614;28;20035;-67
2023/10/17 09:49:54;;;;;;;;;;;;;;;10.36;70.09;101782.00;4222038;28;20026;-66
2023/10/17 09:51:56;;;;;;;;;;;;;;;10.37;69.96;101781.84;4221051;28;20353;-67
2023/10/17 09:54:00;;;;;;;;;;;;;;;10.40;69.76;101780.72;4222704;28;20002;-66
2023/10/17 09:56:03;;;;;;;;;;;;;;;10.42;69.55;101781.41;4203358;28;20027;-67
2023/10/17 09:58:08;;;;;;;;;;;;;;;10.44;69.52;101784.81;4221687;28;19963;-67
2023/10/17 10:00:14;;;;;;;;;;;;;;;10.47;69.85;101789.91;4220735;28;20011;-66
2023/10/17 10:02:20;;;;;;;;;;;;;;;10.51;69.56;101785.06;4221153;28;20689;-67
2023/10/17 10:04:22;;;;;;;;;;;;;;;10.52;69.53;101786.78;4221259;28;20023;-66
2023/10/17 10:06:25;;;;;;;;;;;;;;;10.55;69.20;101781.03;4221571;28;20010;-67
2023/10/17 10:08:28;;;;;;;;;;;;;;;10.58;69.12;101780.72;4221027;28;20018;-67
2023/10/17 10:10:51;;;;;;;;;;;;;;;10.61;69.30;101775.03;4219991;28;19971;-67
2023/10/17 10:12:58;;;;;;;;;;;;;;;10.64;68.75;101781.00;4221420;28;20438;-66
2023/10/17 10:15:01;;;;;;;;;;;;;;;10.67;68.59;101768.19;4220966;28;20019;-67
2023/10/17 10:17:03;;;;;;;;;;;;;;;10.70;68.72;101763.31;4220647;28;20010;-67
2023/10/17 10:19:06;;;;;;;;;;;;;;;10.72;68.59;101765.84;4221502;28;19923;-67
2023/10/17 10:21:08;;;;;;;;;;;;;;;10.75;68.11;101762.84;4220798;28;20015;-67
2023/10/17 10:23:10;;;;;;;;;;;;;;;10.77;68.19;101755.47;4220890;28;20034;-67
2023/10/17 10:25:12;;;;;;;;;;;;;;;10.78;67.76;101743.63;4221712;27;20038;-67
2023/10/17 10:27:21;;;;;;;;;;;;;;;10.80;67.77;101745.19;4220144;28;20364;-67
2023/10/17 10:29:23;;;;;;;;;;;;;;;10.83;67.58;101746.75;4220410;28;20019;-68
2023/10/17 10:31:44;;;;;;;;;;;;;;;10.86;67.18;101741.03;4220534;28;20018;-66
2023/10/17 10:33:46;;;;;;;;;;;;;;;10.88;67.46;101738.16;4220889;28;20022;-66
2023/10/17 10:35:48;;;;;;;;;;;;;;;10.90;67.05;101744.25;4220912;28;20011;-67
2023/10/17 10:37:52;;;;;;;;;;;;;;;10.93;67.31;101743.97;4221594;28;20368;-67
2023/10/17 10:40:11;;;;;;;;;;;;;;;10.96;67.24;101730.97;4220035;28;19978;-67
2023/10/17 10:42:13;;;;;;;;;;;;;;;11.00;67.24;101737.78;4220298;28;20618;-67
2023/10/17 10:44:16;;;;;;;;;;;;;;;11.05;67.04;101739.16;4220815;28;20011;-67
2023/10/17 10:46:19;;;;;;;;;;;;;;;11.08;66.88;101728.88;4219843;28;20014;-68
2023/10/17 10:48:21;;;;;;;;;;;;;;;11.12;66.67;101732.97;4220385;28;20012;-68
2023/10/17 10:50:22;;;;;;;;;;;;;;;11.16;65.89;101730.81;4219990;28;20027;-68
2023/10/17 10:52:25;;;;;;;;;;;;;;;11.20;65.50;101731.34;4220727;28;19924;-68
2023/10/17 10:54:32;;;;;;;;;;;;;;;11.24;65.12;101730.88;4220328;28;20002;-68
2023/10/17 10:56:37;;;;;;;;;;;;;;;11.28;65.08;101731.41;4220549;28;20026;-67
2023/10/17 10:58:47;;;;;;;;;;;;;;;11.32;64.77;101721.97;4218761;28;19947;-67
2023/10/17 11:00:51;;;;;;;;;;;;;;;11.33;64.63;101723.66;4219599;28;19931;-68
2023/10/17 11:02:52;;;;;;;;;;;;;;;11.35;64.33;101727.06;4219454;28;20026;-67
2023/10/17 11:04:56;;;;;;;;;;;;;;;11.36;64.33;101723.34;4220316;28;20495;-67
2023/10/17 11:06:58;;;;;;;;;;;;;;;11.36;64.29;101723.34;4219310;28;20409;-67
2023/10/17 11:09:00;;;;;;;;;;;;;;;11.36;64.18;101718.78;4219736;28;20015;-67
2023/10/17 11:11:01;;;;;;;;;;;;;;;11.36;63.93;101717.94;4201369;28;19940;-67
2023/10/17 11:13:03;;;;;;;;;;;;;;;11.36;63.77;101717.94;4219146;28;19924;-67
2023/10/17 11:15:14;;;;;;;;;;;;;;;11.35;63.80;101719.78;4220543;28;20031;-67
2023/10/17 11:17:19;;;;;;;;;;;;;;;11.36;63.65;101720.63;4221011;28;20458;-68
2023/10/17 11:19:21;;;;;;;;;;;;;;;11.34;63.71;101711.84;4220047;28;20010;-67
2023/10/17 11:21:24;;;;;;;;;;;;;;;11.30;63.65;101711.31;4218431;28;20015;-68
2023/10/17 11:23:27;;;;;;;;;;;;;;;11.32;63.47;101706.59;4219487;28;20027;-67
2023/10/17 11:25:28;;;;;;;;;;;;;;;11.31;63.27;101709.44;4219882;28;20552;-67
2023/10/17 11:27:32;;;;;;;;;;;;;;;11.30;62.82;101703.19;4220069;28;20006;-69
2023/10/17 11:29:35;;;;;;;;;;;;;;;11.28;62.87;101705.19;4219651;28;20023;-67
2023/10/17 11:31:40;;;;;;;;;;;;;;;11.26;62.98;101704.50;4219643;28;20366;-67
2023/10/17 11:33:47;;;;;;;;;;;;;;;11.25;62.90;101707.38;4220170;28;20018;-69
2023/10/17 11:35:50;;;;;;;;;;;;;;;11.23;62.80;101706.69;4220636;28;20018;-67
2023/10/17 11:37:52;;;;;;;;;;;;;;;11.20;62.70;101698.91;4218074;28;20058;-67
2023/10/17 11:40:04;;;;;;;;;;;;;;;11.19;62.91;101703.47;4219517;28;20086;-68
2023/10/17 11:42:06;;;;;;;;;;;;;;;11.16;62.84;101704.63;4217793;28;20616;-68
2023/10/17 11:44:09;;;;;;;;;;;;;;;11.15;62.94;101694.78;4219978;28;20466;-68
2023/10/17 11:46:13;;;;;;;;;;;;;;;11.14;62.84;101697.66;4220279;28;20030;-68
2023/10/17 11:48:26;;;;;;;;;;;;;;;11.13;62.62;101695.97;4219392;28;20046;-67
2023/10/17 11:50:34;;;;;;;;;;;;;;;11.11;62.92;101695.25;4218549;28;20062;-68
2023/10/17 11:52:36;;;;;;;;;;;;;;;11.09;62.80;101692.72;4219995;28;20038;-68
2023/10/17 11:54:53;;;;;;;;;;;;;;;11.08;62.83;101684.75;4219810;28;20085;-68
2023/10/17 11:56:55;;;;;;;;;;;;;;;11.06;62.60;101682.22;4219291;28;20015;-69
2023/10/17 11:58:56;;;;;;;;;;;;;;;11.05;62.64;101685.94;4217872;28;20024;-69
2023/10/17 12:00:59;;;;;;;;;;;;;;;11.03;62.32;101687.09;4219378;28;19924;-68
2023/10/17 12:03:01;;;;;;;;;;;;;;;11.03;62.37;101687.94;4219595;28;20437;-69
2023/10/17 12:05:05;;;;;;;;;;;;;;;10.99;62.06;101679.31;4219440;28;20354;-68
2023/10/17 12:07:08;;;;;;;;;;;;;;;10.99;62.29;101681.16;4219428;28;20484;-68
2023/10/17 12:09:18;;;;;;;;;;;;;;;10.98;62.21;101682.16;4219434;28;20083;-67